North Parkersburg, West Virginia
Current Conditions -  °F | °C
As of 9:53 PM on Wednesday 22 Oct 2014 (Local Time) from KPKB Reporting Station
Overcast Overcast  
Wind Chill: 46°   Ceiling: 2900
Heat Index: 49°   Visibility: 10mi
Dew Point: 41°   Wind: 7mph
Humidity: 74%   Direction: 310°NW
Pressure: 30.25"   Gusts: NA
Location:  39.2848°N, 81.5198°W
Report Text: KPKB 230153Z AUTO 31006KT 10SM OVC029 09/05 A3025 RMK AO2 SLP243 T00940050
Loading
Personal Weather Stations






























Interactive Weather Map
Tropical Storm Tracking
New forecast layout! Learn more

10-Day Weather Forecast

Advertisements
Track Severe Weather on mobile